sensor_id;sensor_type;location;lat;lon;timestamp;P1;durP1;ratioP1;P2;durP2;ratioP2
77581;SDS011;66726;52.388;9.986;2023-06-26T00:00:08;7.50;;;6.73;;
77581;SDS011;66726;52.388;9.986;2023-06-26T00:02:41;7.67;;;6.97;;
77581;SDS011;66726;52.388;9.986;2023-06-26T00:05:14;7.63;;;6.93;;
77581;SDS011;66726;52.388;9.986;2023-06-26T00:07:46;7.60;;;6.87;;
77581;SDS011;66726;52.388;9.986;2023-06-26T00:10:18;7.30;;;6.60;;
77581;SDS011;66726;52.388;9.986;2023-06-26T00:12:50;7.03;;;6.37;;
77581;SDS011;66726;52.388;9.986;2023-06-26T00:15:22;8.23;;;7.43;;
77581;SDS011;66726;52.388;9.986;2023-06-26T00:17:57;8.53;;;7.60;;
77581;SDS011;66726;52.388;9.986;2023-06-26T00:20:31;8.67;;;7.33;;
77581;SDS011;66726;52.388;9.986;2023-06-26T00:23:03;8.03;;;7.23;;
77581;SDS011;66726;52.388;9.986;2023-06-26T00:25:36;9.03;;;7.10;;
77581;SDS011;66726;52.388;9.986;2023-06-26T00:28:08;7.83;;;6.97;;
77581;SDS011;66726;52.388;9.986;2023-06-26T00:30:40;8.00;;;7.30;;
77581;SDS011;66726;52.388;9.986;2023-06-26T00:33:13;7.77;;;7.07;;
77581;SDS011;66726;52.388;9.986;2023-06-26T00:35:47;8.37;;;7.23;;
77581;SDS011;66726;52.388;9.986;2023-06-26T00:38:19;7.90;;;7.23;;
77581;SDS011;66726;52.388;9.986;2023-06-26T00:40:51;7.50;;;6.80;;
77581;SDS011;66726;52.388;9.986;2023-06-26T00:43:23;9.53;;;7.30;;
77581;SDS011;66726;52.388;9.986;2023-06-26T00:45:57;8.17;;;7.47;;
77581;SDS011;66726;52.388;9.986;2023-06-26T00:48:28;7.73;;;6.93;;
77581;SDS011;66726;52.388;9.986;2023-06-26T00:51:02;8.43;;;7.67;;
77581;SDS011;66726;52.388;9.986;2023-06-26T00:53:34;8.17;;;7.40;;
77581;SDS011;66726;52.388;9.986;2023-06-26T00:56:07;8.70;;;7.80;;
77581;SDS011;66726;52.388;9.986;2023-06-26T00:58:41;8.33;;;7.53;;
77581;SDS011;66726;52.388;9.986;2023-06-26T01:01:13;7.53;;;6.83;;
77581;SDS011;66726;52.388;9.986;2023-06-26T01:03:52;8.10;;;7.30;;
77581;SDS011;66726;52.388;9.986;2023-06-26T01:06:25;8.57;;;7.50;;
77581;SDS011;66726;52.388;9.986;2023-06-26T01:09:01;9.43;;;7.87;;
77581;SDS011;66726;52.388;9.986;2023-06-26T01:11:34;9.27;;;7.20;;
77581;SDS011;66726;52.388;9.986;2023-06-26T01:14:06;7.97;;;6.97;;
77581;SDS011;66726;52.388;9.986;2023-06-26T01:16:38;7.57;;;6.97;;
77581;SDS011;66726;52.388;9.986;2023-06-26T01:19:14;7.30;;;6.60;;
77581;SDS011;66726;52.388;9.986;2023-06-26T01:21:58;7.70;;;7.00;;
77581;SDS011;66726;52.388;9.986;2023-06-26T01:24:42;9.13;;;7.13;;
77581;SDS011;66726;52.388;9.986;2023-06-26T01:27:31;7.80;;;7.00;;
77581;SDS011;66726;52.388;9.986;2023-06-26T01:30:05;7.60;;;6.70;;
77581;SDS011;66726;52.388;9.986;2023-06-26T01:32:40;8.13;;;7.23;;
77581;SDS011;66726;52.388;9.986;2023-06-26T01:35:14;7.90;;;7.10;;
77581;SDS011;66726;52.388;9.986;2023-06-26T01:37:46;8.00;;;7.30;;
77581;SDS011;66726;52.388;9.986;2023-06-26T01:40:18;7.80;;;7.10;;
77581;SDS011;66726;52.388;9.986;2023-06-26T01:42:52;7.60;;;6.90;;
77581;SDS011;66726;52.388;9.986;2023-06-26T01:45:26;8.10;;;6.77;;
77581;SDS011;66726;52.388;9.986;2023-06-26T01:48:01;7.30;;;6.60;;
77581;SDS011;66726;52.388;9.986;2023-06-26T01:50:38;7.73;;;7.10;;
77581;SDS011;66726;52.388;9.986;2023-06-26T01:53:16;7.63;;;6.73;;
77581;SDS011;66726;52.388;9.986;2023-06-26T01:55:54;8.57;;;7.67;;
77581;SDS011;66726;52.388;9.986;2023-06-26T01:58:33;8.20;;;7.50;;
77581;SDS011;66726;52.388;9.986;2023-06-26T02:01:11;8.40;;;7.50;;
77581;SDS011;66726;52.388;9.986;2023-06-26T02:03:43;9.17;;;7.83;;
77581;SDS011;66726;52.388;9.986;2023-06-26T02:06:15;9.37;;;7.20;;
77581;SDS011;66726;52.388;9.986;2023-06-26T02:08:47;11.40;;;7.63;;
77581;SDS011;66726;52.388;9.986;2023-06-26T02:11:18;8.87;;;6.97;;
77581;SDS011;66726;52.388;9.986;2023-06-26T02:13:50;9.10;;;7.43;;
77581;SDS011;66726;52.388;9.986;2023-06-26T02:16:22;8.50;;;7.60;;
77581;SDS011;66726;52.388;9.986;2023-06-26T02:18:54;9.17;;;7.50;;
77581;SDS011;66726;52.388;9.986;2023-06-26T02:21:26;8.83;;;7.73;;
77581;SDS011;66726;52.388;9.986;2023-06-26T02:23:57;8.83;;;7.93;;
77581;SDS011;66726;52.388;9.986;2023-06-26T02:26:29;10.03;;;7.10;;
77581;SDS011;66726;52.388;9.986;2023-06-26T02:29:03;8.27;;;7.47;;
77581;SDS011;66726;52.388;9.986;2023-06-26T02:31:34;9.97;;;7.53;;
77581;SDS011;66726;52.388;9.986;2023-06-26T02:34:07;7.70;;;7.00;;
77581;SDS011;66726;52.388;9.986;2023-06-26T02:36:38;8.13;;;7.33;;
77581;SDS011;66726;52.388;9.986;2023-06-26T02:39:10;7.73;;;6.93;;
77581;SDS011;66726;52.388;9.986;2023-06-26T02:41:42;9.10;;;7.23;;
77581;SDS011;66726;52.388;9.986;2023-06-26T02:44:15;10.13;;;7.70;;
77581;SDS011;66726;52.388;9.986;2023-06-26T02:46:47;7.90;;;7.10;;
77581;SDS011;66726;52.388;9.986;2023-06-26T02:49:19;9.77;;;7.60;;
77581;SDS011;66726;52.388;9.986;2023-06-26T02:51:51;9.07;;;7.40;;
77581;SDS011;66726;52.388;9.986;2023-06-26T02:54:23;10.00;;;7.70;;
77581;SDS011;66726;52.388;9.986;2023-06-26T02:56:55;7.93;;;6.60;;
77581;SDS011;66726;52.388;9.986;2023-06-26T02:59:28;9.73;;;7.43;;
77581;SDS011;66726;52.388;9.986;2023-06-26T03:02:00;8.00;;;7.00;;
77581;SDS011;66726;52.388;9.986;2023-06-26T03:04:32;8.00;;;7.30;;
77581;SDS011;66726;52.388;9.986;2023-06-26T03:07:04;9.03;;;6.60;;
77581;SDS011;66726;52.388;9.986;2023-06-26T03:09:36;7.83;;;7.00;;
77581;SDS011;66726;52.388;9.986;2023-06-26T03:12:08;8.80;;;6.60;;
77581;SDS011;66726;52.388;9.986;2023-06-26T03:14:41;9.03;;;6.97;;
77581;SDS011;66726;52.388;9.986;2023-06-26T03:17:13;8.40;;;6.37;;
77581;SDS011;66726;52.388;9.986;2023-06-26T03:19:45;7.67;;;6.80;;
77581;SDS011;66726;52.388;9.986;2023-06-26T03:22:17;10.53;;;6.20;;
77581;SDS011;66726;52.388;9.986;2023-06-26T03:24:49;8.40;;;6.93;;
77581;SDS011;66726;52.388;9.986;2023-06-26T03:27:22;8.17;;;6.50;;
77581;SDS011;66726;52.388;9.986;2023-06-26T03:29:55;8.30;;;7.27;;
77581;SDS011;66726;52.388;9.986;2023-06-26T03:32:27;8.50;;;6.87;;
77581;SDS011;66726;52.388;9.986;2023-06-26T03:34:59;10.40;;;7.30;;
77581;SDS011;66726;52.388;9.986;2023-06-26T03:37:32;8.30;;;6.60;;
77581;SDS011;66726;52.388;9.986;2023-06-26T03:40:04;8.97;;;6.77;;
77581;SDS011;66726;52.388;9.986;2023-06-26T03:42:39;9.50;;;6.60;;
77581;SDS011;66726;52.388;9.986;2023-06-26T03:45:12;7.27;;;6.57;;
77581;SDS011;66726;52.388;9.986;2023-06-26T03:47:45;9.13;;;6.37;;
77581;SDS011;66726;52.388;9.986;2023-06-26T03:50:17;7.10;;;6.33;;
77581;SDS011;66726;52.388;9.986;2023-06-26T03:52:49;7.03;;;6.37;;
77581;SDS011;66726;52.388;9.986;2023-06-26T03:55:21;6.67;;;6.07;;
77581;SDS011;66726;52.388;9.986;2023-06-26T03:57:53;7.10;;;6.37;;
77581;SDS011;66726;52.388;9.986;2023-06-26T04:00:26;8.03;;;6.60;;
77581;SDS011;66726;52.388;9.986;2023-06-26T04:02:58;9.23;;;6.30;;
77581;SDS011;66726;52.388;9.986;2023-06-26T04:05:30;7.57;;;6.40;;
77581;SDS011;66726;52.388;9.986;2023-06-26T04:08:03;7.43;;;6.10;;
77581;SDS011;66726;52.388;9.986;2023-06-26T04:10:35;12.50;;;6.27;;
77581;SDS011;66726;52.388;9.986;2023-06-26T04:13:07;7.17;;;6.40;;
77581;SDS011;66726;52.388;9.986;2023-06-26T04:15:41;8.23;;;6.00;;
77581;SDS011;66726;52.388;9.986;2023-06-26T04:18:13;10.07;;;6.20;;
77581;SDS011;66726;52.388;9.986;2023-06-26T04:23:37;9.13;;;6.43;;
77581;SDS011;66726;52.388;9.986;2023-06-26T04:26:10;8.93;;;6.53;;
77581;SDS011;66726;52.388;9.986;2023-06-26T04:28:42;11.97;;;6.37;;
77581;SDS011;66726;52.388;9.986;2023-06-26T04:31:15;11.43;;;6.47;;
77581;SDS011;66726;52.388;9.986;2023-06-26T04:33:48;6.67;;;6.00;;
77581;SDS011;66726;52.388;9.986;2023-06-26T04:36:21;8.23;;;6.20;;
77581;SDS011;66726;52.388;9.986;2023-06-26T04:38:54;10.57;;;6.10;;
77581;SDS011;66726;52.388;9.986;2023-06-26T04:41:26;8.37;;;6.27;;
77581;SDS011;66726;52.388;9.986;2023-06-26T04:43:58;6.80;;;5.67;;
77581;SDS011;66726;52.388;9.986;2023-06-26T04:46:32;9.20;;;6.10;;
77581;SDS011;66726;52.388;9.986;2023-06-26T04:49:07;8.87;;;5.90;;
77581;SDS011;66726;52.388;9.986;2023-06-26T04:51:39;7.70;;;5.83;;
77581;SDS011;66726;52.388;9.986;2023-06-26T04:54:11;9.47;;;6.07;;
77581;SDS011;66726;52.388;9.986;2023-06-26T04:56:44;8.03;;;5.83;;
77581;SDS011;66726;52.388;9.986;2023-06-26T04:59:15;7.57;;;5.90;;
77581;SDS011;66726;52.388;9.986;2023-06-26T05:01:49;7.67;;;5.80;;
77581;SDS011;66726;52.388;9.986;2023-06-26T05:04:20;9.03;;;6.10;;
77581;SDS011;66726;52.388;9.986;2023-06-26T05:06:52;8.00;;;5.97;;
77581;SDS011;66726;52.388;9.986;2023-06-26T05:09:24;7.60;;;6.20;;
77581;SDS011;66726;52.388;9.986;2023-06-26T05:11:56;9.40;;;5.87;;
77581;SDS011;66726;52.388;9.986;2023-06-26T05:14:29;7.03;;;5.57;;
77581;SDS011;66726;52.388;9.986;2023-06-26T05:17:02;8.73;;;6.50;;
77581;SDS011;66726;52.388;9.986;2023-06-26T05:19:35;7.63;;;5.73;;
77581;SDS011;66726;52.388;9.986;2023-06-26T05:22:07;11.13;;;5.53;;
77581;SDS011;66726;52.388;9.986;2023-06-26T05:24:40;7.70;;;6.20;;
77581;SDS011;66726;52.388;9.986;2023-06-26T05:27:14;7.33;;;5.90;;
77581;SDS011;66726;52.388;9.986;2023-06-26T05:29:49;6.33;;;5.70;;
77581;SDS011;66726;52.388;9.986;2023-06-26T05:32:23;6.67;;;5.50;;
77581;SDS011;66726;52.388;9.986;2023-06-26T05:34:57;8.37;;;5.90;;
77581;SDS011;66726;52.388;9.986;2023-06-26T05:37:34;7.43;;;5.87;;
77581;SDS011;66726;52.388;9.986;2023-06-26T05:40:06;6.10;;;5.50;;
77581;SDS011;66726;52.388;9.986;2023-06-26T05:42:38;7.73;;;6.30;;
77581;SDS011;66726;52.388;9.986;2023-06-26T05:45:11;6.33;;;5.73;;
77581;SDS011;66726;52.388;9.986;2023-06-26T05:47:44;9.80;;;5.83;;
77581;SDS011;66726;52.388;9.986;2023-06-26T05:50:17;8.33;;;6.37;;
77581;SDS011;66726;52.388;9.986;2023-06-26T05:52:48;8.00;;;6.17;;
77581;SDS011;66726;52.388;9.986;2023-06-26T05:55:22;8.67;;;6.60;;
77581;SDS011;66726;52.388;9.986;2023-06-26T05:57:56;8.10;;;6.33;;
77581;SDS011;66726;52.388;9.986;2023-06-26T06:00:31;7.73;;;6.10;;
77581;SDS011;66726;52.388;9.986;2023-06-26T06:03:06;7.03;;;5.90;;
77581;SDS011;66726;52.388;9.986;2023-06-26T06:05:38;7.03;;;5.90;;
77581;SDS011;66726;52.388;9.986;2023-06-26T06:08:10;8.73;;;5.97;;
77581;SDS011;66726;52.388;9.986;2023-06-26T06:10:42;6.67;;;6.07;;
77581;SDS011;66726;52.388;9.986;2023-06-26T06:13:14;6.60;;;5.83;;
77581;SDS011;66726;52.388;9.986;2023-06-26T06:15:46;6.23;;;5.67;;
77581;SDS011;66726;52.388;9.986;2023-06-26T06:18:20;6.23;;;5.70;;
77581;SDS011;66726;52.388;9.986;2023-06-26T06:20:52;6.70;;;6.00;;
77581;SDS011;66726;52.388;9.986;2023-06-26T06:23:24;6.53;;;5.87;;
77581;SDS011;66726;52.388;9.986;2023-06-26T06:25:56;9.53;;;6.10;;
77581;SDS011;66726;52.388;9.986;2023-06-26T06:28:28;6.93;;;5.90;;
77581;SDS011;66726;52.388;9.986;2023-06-26T06:31:00;6.47;;;5.87;;
77581;SDS011;66726;52.388;9.986;2023-06-26T06:33:33;6.70;;;6.10;;
77581;SDS011;66726;52.388;9.986;2023-06-26T06:36:05;6.83;;;6.23;;
77581;SDS011;66726;52.388;9.986;2023-06-26T06:38:37;6.47;;;5.87;;
77581;SDS011;66726;52.388;9.986;2023-06-26T06:41:12;6.90;;;6.23;;
77581;SDS011;66726;52.388;9.986;2023-06-26T06:43:44;8.23;;;6.27;;
77581;SDS011;66726;52.388;9.986;2023-06-26T06:46:16;7.23;;;6.50;;
77581;SDS011;66726;52.388;9.986;2023-06-26T06:48:49;6.37;;;5.77;;
77581;SDS011;66726;52.388;9.986;2023-06-26T06:51:22;7.40;;;6.27;;
77581;SDS011;66726;52.388;9.986;2023-06-26T06:53:54;6.13;;;5.30;;
77581;SDS011;66726;52.388;9.986;2023-06-26T06:56:26;6.63;;;6.00;;
77581;SDS011;66726;52.388;9.986;2023-06-26T06:58:58;8.23;;;6.10;;
77581;SDS011;66726;52.388;9.986;2023-06-26T07:01:30;6.40;;;5.80;;
77581;SDS011;66726;52.388;9.986;2023-06-26T07:04:04;6.87;;;6.17;;
77581;SDS011;66726;52.388;9.986;2023-06-26T07:06:36;6.77;;;6.00;;
77581;SDS011;66726;52.388;9.986;2023-06-26T07:09:08;7.80;;;6.07;;
77581;SDS011;66726;52.388;9.986;2023-06-26T07:11:41;6.80;;;6.13;;
77581;SDS011;66726;52.388;9.986;2023-06-26T07:14:12;6.10;;;5.50;;
77581;SDS011;66726;52.388;9.986;2023-06-26T07:16:44;6.33;;;5.70;;
77581;SDS011;66726;52.388;9.986;2023-06-26T07:19:18;7.83;;;5.83;;
77581;SDS011;66726;52.388;9.986;2023-06-26T07:21:49;10.10;;;6.23;;
77581;SDS011;66726;52.388;9.986;2023-06-26T07:24:21;6.40;;;5.70;;
77581;SDS011;66726;52.388;9.986;2023-06-26T07:26:53;8.40;;;6.17;;
77581;SDS011;66726;52.388;9.986;2023-06-26T07:29:26;7.00;;;6.30;;
77581;SDS011;66726;52.388;9.986;2023-06-26T07:31:58;8.30;;;6.40;;
77581;SDS011;66726;52.388;9.986;2023-06-26T07:34:31;6.83;;;6.20;;
77581;SDS011;66726;52.388;9.986;2023-06-26T07:37:04;7.50;;;6.50;;
77581;SDS011;66726;52.388;9.986;2023-06-26T07:39:36;8.80;;;6.50;;
77581;SDS011;66726;52.388;9.986;2023-06-26T07:42:10;8.43;;;6.60;;
77581;SDS011;66726;52.388;9.986;2023-06-26T07:44:42;7.07;;;6.47;;
77581;SDS011;66726;52.388;9.986;2023-06-26T07:47:13;6.80;;;6.10;;
77581;SDS011;66726;52.388;9.986;2023-06-26T07:49:46;6.30;;;5.70;;
77581;SDS011;66726;52.388;9.986;2023-06-26T07:52:18;7.03;;;6.33;;
77581;SDS011;66726;52.388;9.986;2023-06-26T07:54:50;6.80;;;6.10;;
77581;SDS011;66726;52.388;9.986;2023-06-26T07:57:22;7.10;;;6.40;;
77581;SDS011;66726;52.388;9.986;2023-06-26T07:59:54;7.70;;;6.60;;
77581;SDS011;66726;52.388;9.986;2023-06-26T08:02:26;9.17;;;6.27;;
77581;SDS011;66726;52.388;9.986;2023-06-26T08:04:59;8.13;;;6.50;;
77581;SDS011;66726;52.388;9.986;2023-06-26T08:07:32;7.50;;;6.77;;
77581;SDS011;66726;52.388;9.986;2023-06-26T08:10:04;7.30;;;6.60;;
77581;SDS011;66726;52.388;9.986;2023-06-26T08:12:36;7.03;;;6.37;;
77581;SDS011;66726;52.388;9.986;2023-06-26T08:15:11;10.67;;;6.53;;
77581;SDS011;66726;52.388;9.986;2023-06-26T08:17:44;7.18;;;6.53;;
77581;SDS011;66726;52.388;9.986;2023-06-26T08:20:18;7.35;;;5.85;;
77581;SDS011;66726;52.388;9.986;2023-06-26T08:22:50;7.13;;;6.40;;
77581;SDS011;66726;52.388;9.986;2023-06-26T08:25:22;7.13;;;6.43;;
77581;SDS011;66726;52.388;9.986;2023-06-26T08:27:54;147.13;;;18.98;;
77581;SDS011;66726;52.388;9.986;2023-06-26T08:30:26;7.10;;;6.20;;
77581;SDS011;66726;52.388;9.986;2023-06-26T08:32:59;9.05;;;6.93;;
77581;SDS011;66726;52.388;9.986;2023-06-26T08:35:33;8.90;;;6.00;;
77581;SDS011;66726;52.388;9.986;2023-06-26T08:38:05;8.10;;;6.35;;
77581;SDS011;66726;52.388;9.986;2023-06-26T08:40:37;6.75;;;6.15;;
77581;SDS011;66726;52.388;9.986;2023-06-26T08:43:09;7.13;;;6.53;;
77581;SDS011;66726;52.388;9.986;2023-06-26T08:45:41;8.85;;;6.88;;
77581;SDS011;66726;52.388;9.986;2023-06-26T08:48:17;11.05;;;7.22;;
77581;SDS011;66726;52.388;9.986;2023-06-26T08:50:52;17.50;;;7.53;;
77581;SDS011;66726;52.388;9.986;2023-06-26T08:53:29;7.43;;;6.60;;
77581;SDS011;66726;52.388;9.986;2023-06-26T08:56:10;14.20;;;6.53;;
77581;SDS011;66726;52.388;9.986;2023-06-26T08:58:47;7.53;;;6.82;;
77581;SDS011;66726;52.388;9.986;2023-06-26T09:01:20;7.43;;;6.72;;
77581;SDS011;66726;52.388;9.986;2023-06-26T09:03:53;8.63;;;7.07;;
77581;SDS011;66726;52.388;9.986;2023-06-26T09:06:26;8.45;;;6.72;;
77581;SDS011;66726;52.388;9.986;2023-06-26T09:08:58;9.90;;;6.85;;
77581;SDS011;66726;52.388;9.986;2023-06-26T09:11:32;10.40;;;9.32;;
77581;SDS011;66726;52.388;9.986;2023-06-26T09:14:04;8.25;;;7.07;;
77581;SDS011;66726;52.388;9.986;2023-06-26T09:16:40;11.20;;;7.00;;
77581;SDS011;66726;52.388;9.986;2023-06-26T09:19:12;11.50;;;8.00;;
77581;SDS011;66726;52.388;9.986;2023-06-26T09:21:46;8.30;;;7.35;;
77581;SDS011;66726;52.388;9.986;2023-06-26T09:24:21;22.85;;;8.85;;
77581;SDS011;66726;52.388;9.986;2023-06-26T09:26:54;7.97;;;7.18;;
77581;SDS011;66726;52.388;9.986;2023-06-26T09:29:26;10.73;;;7.95;;
77581;SDS011;66726;52.388;9.986;2023-06-26T09:31:58;17.45;;;9.07;;
77581;SDS011;66726;52.388;9.986;2023-06-26T09:34:31;13.88;;;10.60;;
77581;SDS011;66726;52.388;9.986;2023-06-26T09:37:05;16.83;;;8.88;;
77581;SDS011;66726;52.388;9.986;2023-06-26T09:39:40;14.68;;;7.85;;
77581;SDS011;66726;52.388;9.986;2023-06-26T09:42:13;14.32;;;8.65;;
77581;SDS011;66726;52.388;9.986;2023-06-26T09:44:45;18.27;;;8.63;;
77581;SDS011;66726;52.388;9.986;2023-06-26T09:47:18;12.07;;;8.40;;
77581;SDS011;66726;52.388;9.986;2023-06-26T09:49:53;12.45;;;8.23;;
77581;SDS011;66726;52.388;9.986;2023-06-26T09:52:26;18.00;;;8.05;;
77581;SDS011;66726;52.388;9.986;2023-06-26T09:55:07;18.20;;;8.63;;
77581;SDS011;66726;52.388;9.986;2023-06-26T09:57:40;11.15;;;8.73;;
77581;SDS011;66726;52.388;9.986;2023-06-26T10:00:13;10.20;;;9.07;;
77581;SDS011;66726;52.388;9.986;2023-06-26T10:02:45;15.10;;;8.73;;
77581;SDS011;66726;52.388;9.986;2023-06-26T10:05:17;11.73;;;8.85;;
77581;SDS011;66726;52.388;9.986;2023-06-26T10:07:50;12.23;;;9.88;;
77581;SDS011;66726;52.388;9.986;2023-06-26T10:10:26;15.38;;;9.85;;
77581;SDS011;66726;52.388;9.986;2023-06-26T10:12:59;12.20;;;10.57;;
77581;SDS011;66726;52.388;9.986;2023-06-26T10:15:41;13.32;;;9.68;;
77581;SDS011;66726;52.388;9.986;2023-06-26T10:18:17;19.33;;;10.48;;
77581;SDS011;66726;52.388;9.986;2023-06-26T10:20:51;17.00;;;10.43;;
77581;SDS011;66726;52.388;9.986;2023-06-26T10:23:28;14.43;;;10.75;;
77581;SDS011;66726;52.388;9.986;2023-06-26T10:26:06;13.32;;;9.65;;
77581;SDS011;66726;52.388;9.986;2023-06-26T10:28:39;20.73;;;9.85;;
77581;SDS011;66726;52.388;9.986;2023-06-26T10:31:18;11.32;;;8.07;;
77581;SDS011;66726;52.388;9.986;2023-06-26T10:33:52;17.13;;;10.65;;
77581;SDS011;66726;52.388;9.986;2023-06-26T10:36:29;16.08;;;10.60;;
77581;SDS011;66726;52.388;9.986;2023-06-26T10:39:06;14.75;;;10.38;;
77581;SDS011;66726;52.388;9.986;2023-06-26T10:41:38;14.57;;;10.00;;
77581;SDS011;66726;52.388;9.986;2023-06-26T10:44:29;17.23;;;10.52;;
77581;SDS011;66726;52.388;9.986;2023-06-26T10:47:28;12.10;;;9.65;;
77581;SDS011;66726;52.388;9.986;2023-06-26T10:50:19;18.05;;;8.23;;
77581;SDS011;66726;52.388;9.986;2023-06-26T10:53:12;14.23;;;8.27;;
77581;SDS011;66726;52.388;9.986;2023-06-26T10:55:56;25.90;;;18.13;;
77581;SDS011;66726;52.388;9.986;2023-06-26T10:58:33;12.55;;;9.20;;
77581;SDS011;66726;52.388;9.986;2023-06-26T11:01:20;13.70;;;9.00;;
77581;SDS011;66726;52.388;9.986;2023-06-26T11:04:00;18.50;;;8.70;;
77581;SDS011;66726;52.388;9.986;2023-06-26T11:06:35;13.45;;;9.38;;
77581;SDS011;66726;52.388;9.986;2023-06-26T11:09:09;11.13;;;9.30;;
77581;SDS011;66726;52.388;9.986;2023-06-26T11:11:56;13.23;;;9.90;;
77581;SDS011;66726;52.388;9.986;2023-06-26T11:14:33;13.90;;;9.97;;
77581;SDS011;66726;52.388;9.986;2023-06-26T11:17:05;15.63;;;10.40;;
77581;SDS011;66726;52.388;9.986;2023-06-26T11:19:41;12.05;;;10.52;;
77581;SDS011;66726;52.388;9.986;2023-06-26T11:22:15;11.93;;;9.80;;
77581;SDS011;66726;52.388;9.986;2023-06-26T11:24:47;12.03;;;10.57;;
77581;SDS011;66726;52.388;9.986;2023-06-26T11:27:31;15.67;;;12.60;;
77581;SDS011;66726;52.388;9.986;2023-06-26T11:30:09;13.48;;;12.15;;
77581;SDS011;66726;52.388;9.986;2023-06-26T11:33:01;14.37;;;11.33;;
77581;SDS011;66726;52.388;9.986;2023-06-26T11:35:33;13.43;;;11.50;;
77581;SDS011;66726;52.388;9.986;2023-06-26T11:38:06;14.33;;;11.20;;
77581;SDS011;66726;52.388;9.986;2023-06-26T11:40:37;14.18;;;11.95;;
77581;SDS011;66726;52.388;9.986;2023-06-26T11:43:11;12.88;;;10.68;;
77581;SDS011;66726;52.388;9.986;2023-06-26T11:45:43;14.98;;;11.48;;
77581;SDS011;66726;52.388;9.986;2023-06-26T11:48:16;13.52;;;10.30;;
77581;SDS011;66726;52.388;9.986;2023-06-26T11:50:50;14.80;;;10.65;;
77581;SDS011;66726;52.388;9.986;2023-06-26T11:53:21;15.10;;;11.93;;
77581;SDS011;66726;52.388;9.986;2023-06-26T11:55:53;13.07;;;11.73;;
77581;SDS011;66726;52.388;9.986;2023-06-26T11:58:26;13.88;;;10.65;;
77581;SDS011;66726;52.388;9.986;2023-06-26T12:00:59;12.80;;;10.50;;
77581;SDS011;66726;52.388;9.986;2023-06-26T12:03:33;12.50;;;9.95;;
77581;SDS011;66726;52.388;9.986;2023-06-26T12:06:05;11.10;;;10.00;;
77581;SDS011;66726;52.388;9.986;2023-06-26T12:08:37;11.33;;;10.07;;
77581;SDS011;66726;52.388;9.986;2023-06-26T12:11:10;12.03;;;9.77;;
77581;SDS011;66726;52.388;9.986;2023-06-26T12:13:45;12.60;;;10.10;;
77581;SDS011;66726;52.388;9.986;2023-06-26T12:16:18;13.73;;;10.03;;
77581;SDS011;66726;52.388;9.986;2023-06-26T12:18:51;12.67;;;10.10;;
77581;SDS011;66726;52.388;9.986;2023-06-26T12:21:33;18.93;;;16.60;;
77581;SDS011;66726;52.388;9.986;2023-06-26T12:24:20;9.80;;;8.80;;
77581;SDS011;66726;52.388;9.986;2023-06-26T12:26:55;7.95;;;6.45;;
77581;SDS011;66726;52.388;9.986;2023-06-26T12:29:32;8.30;;;6.40;;
77581;SDS011;66726;52.388;9.986;2023-06-26T12:32:08;8.47;;;6.00;;
77581;SDS011;66726;52.388;9.986;2023-06-26T12:34:41;8.87;;;6.30;;
77581;SDS011;66726;52.388;9.986;2023-06-26T12:37:17;7.17;;;5.90;;
77581;SDS011;66726;52.388;9.986;2023-06-26T12:39:49;7.97;;;5.70;;
77581;SDS011;66726;52.388;9.986;2023-06-26T12:42:24;11.37;;;8.73;;
77581;SDS011;66726;52.388;9.986;2023-06-26T12:45:09;11.23;;;8.53;;
77581;SDS011;66726;52.388;9.986;2023-06-26T12:47:47;6.63;;;5.18;;
77581;SDS011;66726;52.388;9.986;2023-06-26T12:50:19;9.18;;;6.07;;
77581;SDS011;66726;52.388;9.986;2023-06-26T12:52:51;7.35;;;6.00;;
77581;SDS011;66726;52.388;9.986;2023-06-26T12:55:23;5.90;;;5.27;;
77581;SDS011;66726;52.388;9.986;2023-06-26T12:57:57;7.23;;;5.27;;
77581;SDS011;66726;52.388;9.986;2023-06-26T13:00:30;8.02;;;5.35;;
77581;SDS011;66726;52.388;9.986;2023-06-26T13:03:05;7.15;;;5.00;;
77581;SDS011;66726;52.388;9.986;2023-06-26T13:05:37;6.77;;;4.60;;
77581;SDS011;66726;52.388;9.986;2023-06-26T13:08:09;6.30;;;5.00;;
77581;SDS011;66726;52.388;9.986;2023-06-26T13:10:43;8.97;;;5.13;;
77581;SDS011;66726;52.388;9.986;2023-06-26T13:13:15;6.23;;;4.57;;
77581;SDS011;66726;52.388;9.986;2023-06-26T13:15:49;6.40;;;4.93;;
77581;SDS011;66726;52.388;9.986;2023-06-26T13:18:21;7.07;;;4.22;;
77581;SDS011;66726;52.388;9.986;2023-06-26T13:20:53;10.52;;;4.38;;
77581;SDS011;66726;52.388;9.986;2023-06-26T13:23:25;7.57;;;4.60;;
77581;SDS011;66726;52.388;9.986;2023-06-26T13:25:59;7.53;;;4.30;;
77581;SDS011;66726;52.388;9.986;2023-06-26T13:28:32;6.10;;;3.80;;
77581;SDS011;66726;52.388;9.986;2023-06-26T13:31:06;6.07;;;4.03;;
77581;SDS011;66726;52.388;9.986;2023-06-26T13:33:39;7.18;;;4.18;;
77581;SDS011;66726;52.388;9.986;2023-06-26T13:36:12;6.00;;;5.32;;
77581;SDS011;66726;52.388;9.986;2023-06-26T13:38:43;3.97;;;3.47;;
77581;SDS011;66726;52.388;9.986;2023-06-26T13:41:22;7.70;;;6.50;;
77581;SDS011;66726;52.388;9.986;2023-06-26T13:43:55;5.60;;;3.88;;
77581;SDS011;66726;52.388;9.986;2023-06-26T13:46:38;7.15;;;3.80;;
77581;SDS011;66726;52.388;9.986;2023-06-26T13:49:10;10.88;;;3.88;;
77581;SDS011;66726;52.388;9.986;2023-06-26T13:51:42;5.05;;;3.20;;
77581;SDS011;66726;52.388;9.986;2023-06-26T13:54:14;6.85;;;3.33;;
77581;SDS011;66726;52.388;9.986;2023-06-26T13:56:46;6.05;;;3.70;;
77581;SDS011;66726;52.388;9.986;2023-06-26T13:59:20;6.55;;;3.15;;
77581;SDS011;66726;52.388;9.986;2023-06-26T14:01:55;6.75;;;4.32;;
77581;SDS011;66726;52.388;9.986;2023-06-26T14:04:27;5.80;;;3.67;;
77581;SDS011;66726;52.388;9.986;2023-06-26T14:06:59;9.93;;;6.68;;
77581;SDS011;66726;52.388;9.986;2023-06-26T14:09:33;12.13;;;8.50;;
77581;SDS011;66726;52.388;9.986;2023-06-26T14:12:05;7.50;;;5.50;;
77581;SDS011;66726;52.388;9.986;2023-06-26T14:14:40;7.90;;;4.00;;
77581;SDS011;66726;52.388;9.986;2023-06-26T14:17:13;8.10;;;3.63;;
77581;SDS011;66726;52.388;9.986;2023-06-26T14:19:45;6.95;;;3.67;;
77581;SDS011;66726;52.388;9.986;2023-06-26T14:22:17;6.17;;;3.60;;
77581;SDS011;66726;52.388;9.986;2023-06-26T14:24:49;6.00;;;3.20;;
77581;SDS011;66726;52.388;9.986;2023-06-26T14:27:20;6.93;;;3.40;;
77581;SDS011;66726;52.388;9.986;2023-06-26T14:29:52;6.50;;;3.42;;
77581;SDS011;66726;52.388;9.986;2023-06-26T14:32:26;6.53;;;3.10;;
77581;SDS011;66726;52.388;9.986;2023-06-26T14:34:58;5.22;;;3.20;;
77581;SDS011;66726;52.388;9.986;2023-06-26T14:37:30;7.65;;;4.50;;
77581;SDS011;66726;52.388;9.986;2023-06-26T14:40:05;7.82;;;3.80;;
77581;SDS011;66726;52.388;9.986;2023-06-26T14:42:38;7.72;;;3.00;;
77581;SDS011;66726;52.388;9.986;2023-06-26T14:45:14;5.35;;;3.15;;
77581;SDS011;66726;52.388;9.986;2023-06-26T14:47:47;12.85;;;9.27;;
77581;SDS011;66726;52.388;9.986;2023-06-26T14:50:19;8.80;;;7.05;;
77581;SDS011;66726;52.388;9.986;2023-06-26T14:52:51;5.20;;;3.92;;
77581;SDS011;66726;52.388;9.986;2023-06-26T14:55:23;4.95;;;3.25;;
77581;SDS011;66726;52.388;9.986;2023-06-26T14:57:57;5.00;;;3.08;;
77581;SDS011;66726;52.388;9.986;2023-06-26T15:00:30;4.80;;;2.80;;
77581;SDS011;66726;52.388;9.986;2023-06-26T15:03:03;5.73;;;2.90;;
77581;SDS011;66726;52.388;9.986;2023-06-26T15:05:37;7.32;;;2.90;;
77581;SDS011;66726;52.388;9.986;2023-06-26T15:08:11;3.93;;;2.80;;
77581;SDS011;66726;52.388;9.986;2023-06-26T15:10:42;4.60;;;3.00;;
77581;SDS011;66726;52.388;9.986;2023-06-26T15:13:14;4.87;;;2.67;;
77581;SDS011;66726;52.388;9.986;2023-06-26T15:15:46;10.68;;;8.38;;
77581;SDS011;66726;52.388;9.986;2023-06-26T15:18:19;8.40;;;5.53;;
77581;SDS011;66726;52.388;9.986;2023-06-26T15:20:51;5.27;;;3.10;;
77581;SDS011;66726;52.388;9.986;2023-06-26T15:23:23;4.68;;;3.67;;